createdAt,value
2022-08-07T00:02:39.614Z,2.20
2022-08-07T00:05:01.182Z,2.67
2022-08-07T00:07:40.228Z,2.70
2022-08-07T00:10:27.108Z,2.70
2022-08-07T00:13:00.998Z,2.77
2022-08-07T00:15:37.844Z,2.33
2022-08-07T00:18:19.440Z,2.80
2022-08-07T00:20:50.138Z,2.50
2022-08-07T00:23:21.312Z,2.57
2022-08-07T00:25:58.220Z,3.20
2022-08-07T00:28:33.541Z,2.80
2022-08-07T00:31:05.722Z,2.90
2022-08-07T00:33:34.551Z,3.00
2022-08-07T00:36:03.389Z,2.40
2022-08-07T00:38:33.357Z,2.93
2022-08-07T00:41:01.434Z,2.77
2022-08-07T00:43:59.520Z,2.40
2022-08-07T00:46:16.580Z,2.60
2022-08-07T00:48:44.305Z,2.50
2022-08-07T00:51:17.691Z,2.80
2022-08-07T00:53:50.840Z,2.30
2022-08-07T00:56:30.333Z,2.87
2022-08-07T00:59:02.339Z,2.60
2022-08-07T01:01:30.066Z,3.20
2022-08-07T01:04:11.953Z,2.90
2022-08-07T01:06:52.469Z,4.30
2022-08-07T01:10:04.798Z,4.43
2022-08-07T01:12:29.923Z,3.40
2022-08-07T01:15:01.597Z,3.40
2022-08-07T01:17:32.732Z,2.63
2022-08-07T01:20:06.662Z,3.07
2022-08-07T01:22:46.943Z,3.50
2022-08-07T01:25:40.268Z,3.10
2022-08-07T01:28:15.050Z,3.20
2022-08-07T01:30:44.551Z,2.90
2022-08-07T01:33:13.082Z,3.40
2022-08-07T01:35:54.086Z,3.30
2022-08-07T01:38:26.027Z,3.30
2022-08-07T01:41:01.808Z,3.20
2022-08-07T01:43:38.338Z,3.60
2022-08-07T01:46:12.340Z,2.60
2022-08-07T01:48:46.833Z,3.03
2022-08-07T01:51:58.584Z,3.00
2022-08-07T01:54:21.959Z,3.37
2022-08-07T01:57:05.834Z,3.07
2022-08-07T01:59:43.739Z,3.10
2022-08-07T02:02:32.546Z,3.43
2022-08-07T02:05:08.379Z,3.20
2022-08-07T02:07:53.345Z,2.53
2022-08-07T02:10:33.339Z,2.67
2022-08-07T02:13:04.117Z,2.97
2022-08-07T02:15:45.246Z,2.90
2022-08-07T02:18:14.659Z,3.13
2022-08-07T02:20:48.495Z,2.77
2022-08-07T02:23:23.958Z,3.17
2022-08-07T02:26:26.759Z,3.10
2022-08-07T02:28:42.314Z,3.50
2022-08-07T02:31:19.029Z,3.17
2022-08-07T02:34:03.611Z,3.23
2022-08-07T02:36:37.516Z,3.27
2022-08-07T02:39:17.231Z,2.73
2022-08-07T02:42:03.807Z,3.70
2022-08-07T02:44:47.850Z,3.47
2022-08-07T02:47:35.081Z,2.90
2022-08-07T02:50:14.498Z,2.90
2022-08-07T02:52:47.938Z,2.67
2022-08-07T02:55:28.765Z,3.27
2022-08-07T02:58:14.279Z,2.50
2022-08-07T03:00:47.060Z,2.90
2022-08-07T03:03:22.514Z,3.30
2022-08-07T03:05:53.770Z,2.80
2022-08-07T03:08:26.765Z,3.40
2022-08-07T03:10:58.008Z,2.80
2022-08-07T03:13:38.673Z,2.80
2022-08-07T03:16:08.978Z,2.70
2022-08-07T03:18:38.129Z,3.53
2022-08-07T03:21:08.812Z,2.80
2022-08-07T03:24:19.928Z,3.20
2022-08-07T03:26:33.262Z,2.87
2022-08-07T03:29:10.419Z,2.83
2022-08-07T03:31:43.545Z,2.60
2022-08-07T03:34:18.574Z,3.37
2022-08-07T03:36:52.915Z,2.73
2022-08-07T03:39:46.561Z,2.60
2022-08-07T03:42:15.085Z,2.70
2022-08-07T03:44:53.115Z,3.23
2022-08-07T03:47:25.573Z,2.93
2022-08-07T03:49:57.702Z,2.93
2022-08-07T03:52:29.105Z,3.00
2022-08-07T03:55:07.019Z,2.73
2022-08-07T03:59:06.751Z,3.73
2022-08-07T04:00:33.550Z,2.93
2022-08-07T04:03:04.465Z,2.90
2022-08-07T04:05:40.967Z,2.60
2022-08-07T04:08:21.499Z,2.67
2022-08-07T04:10:54.044Z,2.80
2022-08-07T04:14:10.248Z,3.00
2022-08-07T04:16:32.442Z,3.40
2022-08-07T04:19:04.185Z,3.17
2022-08-07T04:21:47.977Z,3.80
2022-08-07T04:24:34.182Z,3.40
2022-08-07T04:27:20.801Z,3.50
2022-08-07T04:29:58.631Z,3.33
2022-08-07T04:32:44.931Z,3.17
2022-08-07T04:35:16.720Z,3.50
2022-08-07T04:38:03.447Z,2.90
2022-08-07T04:40:34.286Z,2.80
2022-08-07T04:43:03.348Z,3.57
2022-08-07T04:45:57.860Z,2.80
2022-08-07T04:48:44.719Z,3.10
2022-08-07T04:51:27.109Z,2.57
2022-08-07T04:54:06.260Z,3.13
2022-08-07T04:58:14.999Z,3.30
2022-08-07T05:00:10.857Z,3.30
2022-08-07T05:02:29.156Z,3.37
2022-08-07T05:05:11.492Z,2.80
2022-08-07T05:07:59.637Z,3.77
2022-08-07T05:10:34.230Z,2.60
2022-08-07T05:14:44.943Z,2.97
2022-08-07T05:15:58.997Z,3.00
2022-08-07T05:18:30.526Z,3.57
2022-08-07T05:21:05.478Z,3.63
2022-08-07T05:23:41.307Z,3.90
2022-08-07T05:26:23.642Z,3.23
2022-08-07T05:28:57.306Z,3.90
2022-08-07T05:31:34.847Z,3.37
2022-08-07T05:34:11.042Z,4.53
2022-08-07T05:36:44.829Z,3.60
2022-08-07T05:40:13.365Z,3.90
2022-08-07T05:42:15.008Z,3.40
2022-08-07T05:45:14.593Z,4.90
2022-08-07T05:48:01.843Z,4.23
2022-08-07T05:50:34.627Z,4.33
2022-08-07T05:53:06.499Z,5.10
2022-08-07T05:56:03.176Z,5.40
2022-08-07T05:58:39.216Z,5.83
2022-08-07T06:01:12.099Z,5.20
2022-08-07T06:03:56.317Z,6.10
2022-08-07T06:06:29.950Z,6.10
2022-08-07T06:09:04.590Z,6.30
2022-08-07T06:11:34.707Z,6.13
2022-08-07T06:14:11.851Z,6.67
2022-08-07T06:16:50.544Z,6.97
2022-08-07T06:19:57.721Z,6.40
2022-08-07T06:22:23.471Z,6.53
2022-08-07T06:25:01.511Z,6.63
2022-08-07T06:28:00.007Z,6.07
2022-08-07T06:30:32.185Z,6.00
2022-08-07T06:33:16.111Z,5.90
2022-08-07T06:35:48.100Z,5.20
2022-08-07T06:38:35.285Z,5.60
2022-08-07T06:41:12.976Z,6.10
2022-08-07T06:43:46.578Z,6.30
2022-08-07T06:46:31.278Z,5.70
2022-08-07T06:49:03.905Z,6.57
2022-08-07T06:51:49.447Z,4.83
2022-08-07T06:55:34.051Z,5.17
2022-08-07T06:57:13.477Z,4.70
2022-08-07T07:00:13.922Z,5.40
2022-08-07T07:02:53.875Z,4.57
2022-08-07T07:06:02.816Z,4.20
2022-08-07T07:08:18.464Z,4.93
2022-08-07T07:10:57.100Z,6.40
2022-08-07T07:13:56.672Z,4.97
2022-08-07T07:16:27.446Z,4.30
2022-08-07T07:19:11.215Z,4.77
2022-08-07T07:22:04.983Z,4.57
2022-08-07T07:24:42.831Z,5.27
2022-08-07T07:27:14.269Z,4.60
2022-08-07T07:29:57.196Z,4.40
2022-08-07T07:32:40.378Z,4.30
2022-08-07T07:35:11.913Z,4.40
2022-08-07T07:37:47.308Z,5.23
2022-08-07T07:40:25.256Z,4.17
2022-08-07T07:42:56.274Z,4.77
2022-08-07T07:46:38.457Z,4.00
2022-08-07T07:48:35.115Z,3.63
2022-08-07T07:51:07.586Z,4.70
2022-08-07T07:53:44.396Z,4.00
2022-08-07T07:56:30.116Z,4.70
2022-08-07T07:59:01.364Z,4.80
2022-08-07T08:02:01.963Z,4.13
2022-08-07T08:04:25.718Z,4.07
2022-08-07T08:06:55.896Z,4.13
2022-08-07T08:09:29.588Z,4.43
2022-08-07T08:12:02.222Z,4.43
2022-08-07T08:14:34.373Z,3.83
2022-08-07T08:17:55.272Z,3.33
2022-08-07T08:20:18.026Z,4.07
2022-08-07T08:23:09.947Z,3.97
2022-08-07T08:25:58.056Z,4.10
2022-08-07T08:28:37.567Z,3.77
2022-08-07T08:31:16.061Z,3.60
2022-08-07T08:33:49.590Z,3.70
2022-08-07T08:36:25.581Z,3.60
2022-08-07T08:38:59.905Z,3.70
2022-08-07T08:41:57.285Z,3.37
2022-08-07T08:44:38.319Z,3.70
2022-08-07T08:47:25.035Z,3.30
2022-08-07T08:50:28.200Z,3.33
2022-08-07T08:53:08.821Z,3.30
2022-08-07T08:55:54.235Z,2.40
2022-08-07T08:58:36.732Z,3.27
2022-08-07T09:01:14.783Z,2.60
2022-08-07T09:03:53.178Z,3.00
2022-08-07T09:06:38.483Z,3.30
2022-08-07T09:09:29.916Z,2.80
2022-08-07T09:12:30.215Z,2.30
2022-08-07T09:16:25.844Z,1.97
2022-08-07T09:18:13.589Z,2.33
2022-08-07T09:21:00.106Z,2.37
2022-08-07T09:24:32.048Z,2.63
2022-08-07T09:26:40.280Z,3.27
2022-08-07T09:30:05.593Z,2.97
2022-08-07T09:32:26.534Z,2.60
2022-08-07T09:36:04.506Z,2.10
2022-08-07T09:38:00.483Z,2.50
2022-08-07T09:40:33.603Z,2.40
2022-08-07T09:43:14.595Z,3.03
2022-08-07T09:47:26.254Z,2.37
2022-08-07T09:50:02.027Z,2.87
2022-08-07T09:52:09.928Z,3.60
2022-08-07T09:54:45.033Z,2.57
2022-08-07T09:57:46.680Z,2.97
2022-08-07T10:00:17.866Z,2.73
2022-08-07T10:04:07.042Z,2.30
2022-08-07T10:06:32.451Z,2.20
2022-08-07T10:09:43.005Z,2.13
2022-08-07T10:12:34.702Z,2.30
2022-08-07T10:15:26.430Z,2.40
2022-08-07T10:18:17.938Z,2.90
2022-08-07T10:21:03.563Z,2.20
2022-08-07T10:24:04.719Z,2.00
2022-08-07T10:26:53.530Z,1.90
2022-08-07T10:29:45.916Z,1.83
2022-08-07T10:32:36.780Z,1.87
2022-08-07T10:35:27.257Z,1.93
2022-08-07T10:38:47.982Z,2.30
2022-08-07T10:41:47.108Z,1.80
2022-08-07T10:44:17.005Z,2.13
2022-08-07T10:47:14.367Z,2.27
2022-08-07T10:49:50.980Z,2.10
2022-08-07T10:52:31.787Z,2.47
2022-08-07T10:55:26.772Z,1.93
2022-08-07T10:58:14.463Z,2.27
2022-08-07T11:00:56.509Z,1.60
2022-08-07T11:03:37.594Z,2.30
2022-08-07T11:06:26.811Z,2.00
2022-08-07T11:09:00.903Z,1.87
2022-08-07T11:11:35.599Z,1.80
2022-08-07T11:14:44.755Z,2.10
2022-08-07T11:17:07.321Z,1.70
2022-08-07T11:19:43.329Z,1.90
2022-08-07T11:22:19.130Z,2.20
2022-08-07T11:25:10.083Z,2.30
2022-08-07T11:28:02.115Z,2.00
2022-08-07T11:30:42.160Z,1.80
2022-08-07T11:33:17.704Z,2.10
2022-08-07T11:35:59.607Z,2.13
2022-08-07T11:38:34.265Z,2.30
2022-08-07T11:41:06.857Z,1.87
2022-08-07T11:44:10.640Z,2.43
2022-08-07T11:46:44.229Z,1.77
2022-08-07T11:50:18.508Z,2.20
2022-08-07T11:52:37.787Z,2.00
2022-08-07T11:55:18.896Z,2.10
2022-08-07T11:58:16.103Z,2.50
2022-08-07T12:01:02.157Z,2.03
2022-08-07T12:03:47.434Z,2.10
2022-08-07T12:06:37.923Z,1.80
2022-08-07T12:09:16.731Z,2.50
2022-08-07T12:12:10.775Z,2.23
2022-08-07T12:14:55.217Z,1.90
2022-08-07T12:17:38.259Z,1.63
2022-08-07T12:20:20.851Z,2.33
2022-08-07T12:23:15.842Z,2.00
2022-08-07T12:26:03.480Z,2.50
2022-08-07T12:28:53.994Z,1.63
2022-08-07T12:31:53.382Z,1.87
2022-08-07T12:34:20.595Z,1.90
2022-08-07T12:36:53.553Z,2.23
2022-08-07T12:39:43.724Z,1.90
2022-08-07T12:42:13.314Z,1.90
2022-08-07T12:44:43.033Z,2.20
2022-08-07T12:47:31.091Z,2.13
2022-08-07T12:50:38.272Z,1.60
2022-08-07T12:53:05.087Z,1.73
2022-08-07T12:55:41.450Z,1.93
2022-08-07T12:58:35.559Z,1.97
2022-08-07T13:01:13.045Z,2.00
2022-08-07T13:04:05.627Z,1.67
2022-08-07T13:07:02.073Z,1.80
2022-08-07T13:10:19.770Z,1.90
2022-08-07T13:12:54.908Z,2.30
2022-08-07T13:15:34.037Z,2.60
2022-08-07T13:18:26.229Z,2.10
2022-08-07T13:20:59.948Z,2.03
2022-08-07T13:24:01.138Z,2.07
2022-08-07T13:26:30.907Z,1.90
2022-08-07T13:29:10.892Z,2.13
2022-08-07T13:31:57.895Z,1.20
2022-08-07T13:34:38.065Z,1.63
2022-08-07T13:37:30.536Z,1.80
2022-08-07T13:40:36.761Z,2.07
2022-08-07T13:42:59.119Z,1.80
2022-08-07T13:46:11.930Z,1.70
2022-08-07T13:48:27.767Z,7.77
2022-08-07T13:51:26.907Z,4.13
2022-08-07T13:53:59.749Z,1.70
2022-08-07T13:56:36.149Z,2.30
2022-08-07T13:59:12.697Z,1.60
2022-08-07T14:01:51.186Z,2.10
2022-08-07T14:04:35.831Z,1.90
2022-08-07T14:07:09.693Z,2.00
2022-08-07T14:10:02.375Z,1.90
2022-08-07T14:12:41.945Z,2.20
2022-08-07T14:15:27.910Z,2.20
2022-08-07T14:18:27.367Z,2.00
2022-08-07T14:21:00.235Z,2.07
2022-08-07T14:24:00.566Z,2.10
2022-08-07T14:26:31.983Z,1.67
2022-08-07T14:29:06.086Z,1.97
2022-08-07T14:31:56.605Z,1.60
2022-08-07T14:34:30.106Z,1.77
2022-08-07T14:37:01.721Z,2.07
2022-08-07T14:40:18.232Z,1.87
2022-08-07T14:42:32.444Z,1.40
2022-08-07T14:50:45.658Z,1.50
2022-08-07T14:53:15.401Z,1.77
2022-08-07T14:55:56.420Z,1.80
2022-08-07T14:58:36.475Z,1.97
2022-08-07T15:01:21.537Z,1.90
2022-08-07T15:03:52.683Z,1.50
2022-08-07T15:06:25.195Z,1.53
2022-08-07T15:08:55.711Z,1.80
2022-08-07T15:14:21.160Z,1.60
2022-08-07T15:16:55.831Z,1.60
2022-08-07T15:20:23.562Z,2.60
2022-08-07T15:22:31.451Z,1.90
2022-08-07T15:37:02.832Z,1.60
2022-08-07T15:39:19.011Z,1.43
2022-08-07T15:42:44.051Z,1.67
2022-08-07T15:44:51.718Z,1.50
2022-08-07T15:47:21.687Z,1.50
2022-08-07T15:50:37.753Z,1.37
2022-08-07T15:53:06.453Z,1.53
2022-08-07T15:56:02.355Z,1.57
2022-08-07T15:58:43.633Z,1.60
2022-08-07T16:01:24.281Z,1.73
2022-08-07T16:04:14.874Z,1.50
2022-08-07T16:06:49.910Z,1.47
2022-08-07T16:09:23.144Z,1.40
2022-08-07T16:12:01.890Z,1.70
2022-08-07T16:14:48.676Z,1.70
2022-08-07T16:18:01.550Z,1.40
2022-08-07T16:20:42.703Z,1.80
2022-08-07T16:23:53.572Z,1.67
2022-08-07T16:26:59.697Z,1.80
2022-08-07T16:30:11.564Z,1.70
2022-08-07T16:32:39.356Z,1.60
2022-08-07T16:35:50.303Z,1.67
2022-08-07T16:39:00.605Z,1.33
2022-08-07T16:41:41.583Z,1.70
2022-08-07T16:45:31.050Z,1.60
2022-08-07T16:48:13.630Z,1.80
2022-08-07T16:51:20.623Z,2.60
2022-08-07T16:54:19.755Z,1.50
2022-08-07T16:57:01.133Z,1.30
2022-08-07T16:59:46.088Z,1.83
2022-08-07T17:02:52.314Z,1.50
2022-08-07T17:06:28.501Z,1.70
2022-08-07T17:09:09.442Z,1.47
2022-08-07T17:12:01.201Z,1.83
2022-08-07T17:14:24.387Z,2.10
2022-08-07T17:16:57.030Z,1.80
2022-08-07T17:20:03.020Z,1.60
2022-08-07T17:22:49.421Z,1.77
2022-08-07T17:25:47.905Z,1.87
2022-08-07T17:28:19.392Z,2.30
2022-08-07T17:30:58.217Z,1.87
2022-08-07T17:34:10.084Z,1.73
2022-08-07T17:36:21.230Z,1.80
2022-08-07T17:39:01.284Z,1.80
2022-08-07T17:42:04.102Z,1.93
2022-08-07T17:44:41.242Z,2.10
2022-08-07T17:47:16.877Z,1.70
2022-08-07T17:49:54.464Z,1.80
2022-08-07T17:52:30.572Z,1.70
2022-08-07T17:55:08.728Z,1.63
2022-08-07T17:57:59.247Z,1.57
2022-08-07T18:00:34.691Z,2.00
2022-08-07T18:03:21.677Z,1.60
2022-08-07T18:06:02.072Z,1.73
2022-08-07T18:08:34.858Z,1.87
2022-08-07T18:12:07.937Z,1.70
2022-08-07T18:14:06.101Z,1.77
2022-08-07T18:16:37.409Z,1.80
2022-08-07T18:21:06.021Z,1.83
2022-08-07T18:22:28.530Z,2.20
2022-08-07T18:25:01.636Z,1.80
2022-08-07T18:28:15.346Z,1.77
2022-08-07T18:31:06.216Z,2.13
2022-08-07T18:33:58.762Z,2.37
2022-08-07T18:36:40.201Z,2.50
2022-08-07T18:40:07.757Z,1.77
2022-08-07T18:42:19.652Z,2.30
2022-08-07T18:45:43.994Z,2.20
2022-08-07T18:48:01.647Z,1.73
2022-08-07T18:50:46.995Z,2.20
2022-08-07T18:53:39.404Z,1.80
2022-08-07T18:56:14.713Z,2.10
2022-08-07T18:59:06.668Z,2.37
2022-08-07T19:02:19.301Z,2.97
2022-08-07T19:04:57.855Z,2.83
2022-08-07T19:07:53.772Z,2.10
2022-08-07T19:10:31.560Z,2.87
2022-08-07T19:13:10.399Z,2.20
2022-08-07T19:16:05.428Z,2.57
2022-08-07T19:18:46.512Z,2.00
2022-08-07T19:21:47.524Z,2.20
2022-08-07T19:24:31.001Z,2.20
2022-08-07T19:28:57.060Z,2.50
2022-08-07T19:31:00.763Z,2.23
2022-08-07T19:32:46.352Z,3.07
2022-08-07T19:35:22.312Z,2.73
2022-08-07T19:37:58.177Z,2.57
2022-08-07T19:40:38.095Z,2.30
2022-08-07T19:43:21.887Z,2.40
2022-08-07T19:46:10.683Z,2.23
2022-08-07T19:48:44.006Z,2.90
2022-08-07T19:51:19.337Z,2.30
2022-08-07T19:54:34.049Z,3.00
2022-08-07T19:57:56.637Z,2.93
2022-08-07T19:59:40.938Z,2.90
2022-08-07T20:02:19.734Z,2.70
2022-08-07T20:04:51.727Z,3.00
2022-08-07T20:07:46.591Z,2.83
2022-08-07T20:10:35.653Z,2.90
2022-08-07T20:13:22.351Z,2.60
2022-08-07T20:15:55.181Z,2.60
2022-08-07T20:18:33.416Z,2.87
2022-08-07T20:21:20.980Z,2.53
2022-08-07T20:23:58.067Z,2.43
2022-08-07T20:26:38.507Z,2.17
2022-08-07T20:29:47.950Z,3.20
2022-08-07T20:32:38.894Z,3.00
2022-08-07T20:35:51.676Z,2.47
2022-08-07T20:38:23.170Z,2.43
2022-08-07T20:40:57.162Z,3.07
2022-08-07T20:43:28.171Z,2.70
2022-08-07T20:46:28.241Z,3.13
2022-08-07T20:49:54.305Z,3.07
2022-08-07T20:51:51.164Z,3.20
2022-08-07T20:54:30.318Z,3.37
2022-08-07T20:57:04.303Z,2.63
2022-08-07T21:00:07.361Z,3.77
2022-08-07T21:02:55.169Z,3.50
2022-08-07T21:05:52.577Z,3.00
2022-08-07T21:08:20.774Z,3.53
2022-08-07T21:11:14.141Z,3.17
2022-08-07T21:14:16.925Z,3.57
2022-08-07T21:16:56.229Z,2.70
2022-08-07T21:19:32.386Z,3.33
2022-08-07T21:22:16.589Z,3.10
2022-08-07T21:24:59.590Z,3.00
2022-08-07T21:27:47.416Z,9.50
2022-08-07T21:30:19.868Z,2.83
2022-08-07T21:32:56.178Z,3.00
2022-08-07T21:35:34.528Z,3.10
2022-08-07T21:38:27.922Z,3.30
2022-08-07T21:41:04.886Z,3.07
2022-08-07T21:43:55.185Z,3.07
2022-08-07T21:46:31.817Z,2.90
2022-08-07T21:49:14.480Z,3.60
2022-08-07T21:52:00.300Z,3.50
2022-08-07T21:54:37.407Z,3.33
2022-08-07T21:57:39.862Z,3.13
2022-08-07T22:00:22.741Z,3.03
2022-08-07T22:03:03.429Z,3.23
2022-08-07T22:05:46.173Z,3.23
2022-08-07T22:08:24.739Z,3.37
2022-08-07T22:11:03.858Z,2.70
2022-08-07T22:13:51.823Z,3.60
2022-08-07T22:16:44.784Z,3.47
2022-08-07T22:19:23.524Z,2.67
2022-08-07T22:22:10.788Z,3.57
2022-08-07T22:24:56.442Z,3.10
2022-08-07T22:28:01.264Z,3.70
2022-08-07T22:30:19.454Z,3.50
2022-08-07T22:32:58.770Z,3.77
2022-08-07T22:35:40.285Z,3.60
2022-08-07T22:38:24.334Z,3.30
2022-08-07T22:40:57.722Z,3.50
2022-08-07T22:43:34.279Z,2.87
2022-08-07T22:47:02.851Z,3.00
2022-08-07T22:49:39.405Z,3.53
2022-08-07T22:52:37.297Z,3.60
2022-08-07T22:55:31.750Z,3.13
2022-08-07T22:58:22.403Z,3.07
2022-08-07T23:01:08.670Z,3.90
2022-08-07T23:03:57.885Z,2.90
2022-08-07T23:06:52.044Z,3.10
2022-08-07T23:10:05.496Z,3.90
2022-08-07T23:12:38.221Z,3.20
2022-08-07T23:15:21.665Z,4.20
2022-08-07T23:18:14.186Z,3.40
2022-08-07T23:20:59.196Z,3.57
2022-08-07T23:24:06.298Z,4.10
2022-08-07T23:26:50.400Z,3.60
2022-08-07T23:30:38.234Z,3.93
2022-08-07T23:34:33.514Z,3.20
2022-08-07T23:35:55.590Z,4.00
2022-08-07T23:38:43.013Z,4.10
2022-08-07T23:41:33.516Z,3.50
2022-08-07T23:44:19.136Z,3.80
2022-08-07T23:47:16.622Z,4.77
2022-08-07T23:50:07.904Z,3.80
2022-08-07T23:53:12.065Z,3.43
2022-08-07T23:55:53.602Z,3.53
2022-08-07T23:58:27.697Z,3.50
